createdAt,value
2019-05-30T00:00:17.083Z,32.03
2019-05-30T00:01:08.244Z,31.83
2019-05-30T00:02:08.238Z,31.73
2019-05-30T00:03:08.217Z,31.83
2019-05-30T00:04:08.221Z,31.93
2019-05-30T00:05:08.669Z,32.03
2019-05-30T00:06:08.195Z,32.21
2019-05-30T00:07:11.022Z,31.93
2019-05-30T00:08:08.179Z,31.83
2019-05-30T00:09:08.156Z,32.03
2019-05-30T00:10:08.193Z,32.01
2019-05-30T00:11:08.648Z,32.01
2019-05-30T00:12:08.135Z,32.12
2019-05-30T00:13:08.122Z,31.91
2019-05-30T00:14:08.107Z,31.83
2019-05-30T00:15:08.157Z,32.03
2019-05-30T00:16:08.093Z,31.83
2019-05-30T00:17:08.079Z,32.03
2019-05-30T00:18:08.067Z,32.03
2019-05-30T00:19:08.053Z,31.83
2019-05-30T00:20:08.078Z,32.03
2019-05-30T00:21:08.040Z,31.81
2019-05-30T00:22:08.035Z,32.03
2019-05-30T00:23:09.243Z,32.03
2019-05-30T00:24:08.649Z,31.91
2019-05-30T00:25:08.014Z,32.03
2019-05-30T00:26:07.975Z,32.01
2019-05-30T00:27:07.970Z,31.93
2019-05-30T00:28:07.961Z,32.12
2019-05-30T00:29:07.949Z,32.23
2019-05-30T00:30:23.425Z,32.23
2019-05-30T00:31:07.914Z,32.12
2019-05-30T00:32:07.979Z,32.03
2019-05-30T00:33:07.908Z,32.23
2019-05-30T00:34:08.654Z,32.12
2019-05-30T00:35:08.165Z,31.93
2019-05-30T00:36:07.886Z,31.83
2019-05-30T00:37:07.871Z,32.23
2019-05-30T00:38:07.857Z,32.12
2019-05-30T00:39:07.847Z,31.83
2019-05-30T00:40:07.845Z,32.12
2019-05-30T00:41:07.811Z,32.12
2019-05-30T00:42:07.798Z,31.93
2019-05-30T00:43:07.787Z,32.03
2019-05-30T00:44:08.668Z,32.03
2019-05-30T00:45:20.011Z,31.93
2019-05-30T00:46:07.772Z,32.03
2019-05-30T00:47:08.649Z,31.63
2019-05-30T00:48:08.653Z,32.03
2019-05-30T00:49:08.647Z,32.03
2019-05-30T00:50:08.187Z,32.03
2019-05-30T00:51:07.708Z,32.03
2019-05-30T00:52:08.679Z,32.03
2019-05-30T00:53:07.683Z,32.03
2019-05-30T00:54:07.676Z,32.03
2019-05-30T00:55:07.665Z,31.93
2019-05-30T00:56:07.665Z,32.62
2019-05-30T00:57:07.646Z,32.23
2019-05-30T00:58:07.644Z,32.03
2019-05-30T00:59:07.639Z,32.23
2019-05-30T01:00:08.185Z,32.32
2019-05-30T01:01:07.673Z,32.23
2019-05-30T01:02:07.582Z,32.62
2019-05-30T01:03:09.044Z,32.32
2019-05-30T01:04:08.176Z,32.32
2019-05-30T01:05:08.005Z,32.32
2019-05-30T01:06:07.593Z,32.32
2019-05-30T01:07:07.543Z,32.42
2019-05-30T01:08:08.164Z,32.72
2019-05-30T01:09:07.622Z,32.32
2019-05-30T01:10:08.186Z,32.42
2019-05-30T01:11:07.541Z,32.42
2019-05-30T01:12:08.154Z,32.72
2019-05-30T01:13:07.485Z,32.12
2019-05-30T01:14:08.160Z,32.32
2019-05-30T01:15:07.635Z,32.42
2019-05-30T01:16:07.676Z,32.03
2019-05-30T01:17:07.527Z,32.42
2019-05-30T01:18:07.453Z,32.12
2019-05-30T01:19:08.156Z,32.42
2019-05-30T01:20:08.189Z,32.82
2019-05-30T01:21:07.566Z,31.93
2019-05-30T01:22:07.717Z,32.12
2019-05-30T01:23:07.526Z,32.82
2019-05-30T01:24:07.783Z,32.53
2019-05-30T01:25:07.869Z,31.83
2019-05-30T01:26:07.656Z,31.83
2019-05-30T01:27:08.169Z,32.32
2019-05-30T01:28:07.850Z,32.32
2019-05-30T01:29:07.784Z,32.32
2019-05-30T01:30:07.956Z,32.32
2019-05-30T01:31:10.980Z,32.32
2019-05-30T01:32:07.613Z,32.03
2019-05-30T01:33:08.036Z,32.23
2019-05-30T01:34:08.151Z,32.32
2019-05-30T01:35:08.151Z,31.93
2019-05-30T01:36:07.967Z,31.93
2019-05-30T01:37:08.160Z,32.32
2019-05-30T01:38:08.227Z,32.53
2019-05-30T01:39:08.194Z,32.53
2019-05-30T01:40:08.709Z,32.03
2019-05-30T01:41:08.099Z,32.53
2019-05-30T01:42:07.971Z,32.03
2019-05-30T01:43:08.271Z,32.53
2019-05-30T01:44:08.365Z,31.93
2019-05-30T01:45:08.367Z,32.53
2019-05-30T01:46:08.247Z,32.12
2019-05-30T01:47:08.295Z,32.62
2019-05-30T01:48:08.456Z,32.53
2019-05-30T01:49:07.085Z,32.62
2019-05-30T01:50:08.757Z,32.72
2019-05-30T01:51:07.078Z,32.42
2019-05-30T01:52:07.047Z,32.53
2019-05-30T01:53:07.044Z,32.03
2019-05-30T01:54:07.025Z,32.62
2019-05-30T01:55:07.028Z,32.62
2019-05-30T01:56:07.200Z,32.62
2019-05-30T01:57:07.059Z,32.72
2019-05-30T01:58:08.953Z,32.12
2019-05-30T01:59:06.973Z,32.32
2019-05-30T02:00:18.732Z,32.53
2019-05-30T02:01:19.151Z,32.23
2019-05-30T02:02:07.277Z,32.72
2019-05-30T02:03:07.141Z,32.23
2019-05-30T02:04:07.350Z,32.62
2019-05-30T02:05:07.584Z,32.23
2019-05-30T02:06:07.293Z,32.53
2019-05-30T02:07:07.338Z,32.23
2019-05-30T02:08:07.258Z,32.23
2019-05-30T02:09:07.438Z,32.23
2019-05-30T02:10:07.443Z,32.23
2019-05-30T02:11:07.520Z,32.62
2019-05-30T02:12:07.613Z,32.23
2019-05-30T02:13:07.551Z,32.32
2019-05-30T02:14:07.734Z,32.12
2019-05-30T02:15:07.783Z,32.42
2019-05-30T02:16:07.869Z,32.23
2019-05-30T02:17:07.823Z,32.12
2019-05-30T02:18:07.688Z,32.23
2019-05-30T02:19:07.985Z,32.14
2019-05-30T02:20:07.854Z,32.53
2019-05-30T02:21:07.831Z,32.42
2019-05-30T02:22:07.735Z,32.42
2019-05-30T02:23:08.053Z,32.24
2019-05-30T02:24:07.936Z,32.34
2019-05-30T02:25:06.715Z,32.44
2019-05-30T02:26:06.686Z,32.32
2019-05-30T02:27:06.710Z,32.23
2019-05-30T02:28:06.669Z,32.12
2019-05-30T02:29:06.669Z,32.64
2019-05-30T02:30:09.402Z,32.42
2019-05-30T02:31:07.105Z,32.23
2019-05-30T02:32:07.116Z,32.03
2019-05-30T02:33:07.342Z,32.12
2019-05-30T02:34:07.622Z,31.93
2019-05-30T02:35:08.370Z,32.04
2019-05-30T02:36:08.473Z,31.83
2019-05-30T02:37:08.400Z,32.12
2019-05-30T02:38:07.392Z,32.44
2019-05-30T02:39:07.479Z,32.04
2019-05-30T02:40:09.887Z,31.94
2019-05-30T02:41:08.165Z,32.62
2019-05-30T02:42:07.418Z,32.23
2019-05-30T02:43:07.608Z,32.04
2019-05-30T02:44:07.731Z,32.12
2019-05-30T02:45:07.998Z,32.62
2019-05-30T02:46:08.099Z,32.44
2019-05-30T02:47:07.400Z,31.93
2019-05-30T02:48:07.378Z,32.32
2019-05-30T02:49:07.268Z,32.32
2019-05-30T02:50:08.443Z,31.94
2019-05-30T02:51:08.025Z,31.83
2019-05-30T02:52:07.251Z,32.72
2019-05-30T02:53:08.011Z,32.04
2019-05-30T02:54:08.560Z,32.64
2019-05-30T02:55:08.427Z,32.04
2019-05-30T02:56:07.765Z,32.03
2019-05-30T02:57:07.979Z,32.32
2019-05-30T02:58:08.615Z,32.62
2019-05-30T02:59:09.158Z,32.04
2019-05-30T03:00:08.246Z,32.64
2019-05-30T03:01:07.094Z,32.12
2019-05-30T03:02:09.913Z,32.14
2019-05-30T03:03:09.029Z,32.04
2019-05-30T03:04:08.150Z,32.14
2019-05-30T03:05:08.756Z,32.04
2019-05-30T03:06:08.591Z,32.54
2019-05-30T03:07:09.002Z,31.84
2019-05-30T03:08:09.274Z,32.54
2019-05-30T03:09:09.067Z,32.04
2019-05-30T03:10:09.407Z,32.14
2019-05-30T03:11:09.313Z,32.54
2019-05-30T03:12:08.186Z,32.14
2019-05-30T03:13:06.760Z,32.54
2019-05-30T03:14:07.108Z,32.44
2019-05-30T03:15:07.354Z,32.84
2019-05-30T03:16:07.457Z,32.84
2019-05-30T03:17:09.192Z,32.84
2019-05-30T03:18:08.086Z,32.64
2019-05-30T03:19:06.342Z,32.44
2019-05-30T03:20:16.100Z,33.04
2019-05-30T03:21:08.619Z,32.84
2019-05-30T03:22:06.963Z,32.74
2019-05-30T03:23:08.318Z,32.74
2019-05-30T03:24:07.655Z,32.54
2019-05-30T03:25:07.857Z,32.54
2019-05-30T03:26:09.172Z,32.74
2019-05-30T03:27:07.076Z,32.74
2019-05-30T03:28:07.526Z,32.74
2019-05-30T03:29:07.823Z,32.93
2019-05-30T03:30:13.440Z,32.74
2019-05-30T03:31:14.665Z,32.64
2019-05-30T03:32:38.943Z,32.93
2019-05-30T03:33:19.446Z,32.74
2019-05-30T03:34:16.119Z,33.04
2019-05-30T03:35:11.056Z,32.93
2019-05-30T03:36:14.026Z,32.64
2019-05-30T03:37:10.538Z,32.93
2019-05-30T03:38:07.955Z,32.64
2019-05-30T03:39:07.500Z,33.04
2019-05-30T03:40:05.905Z,32.74
2019-05-30T03:41:07.499Z,32.74
2019-05-30T03:42:07.019Z,32.64
2019-05-30T03:43:06.764Z,32.64
2019-05-30T03:44:08.441Z,32.74
2019-05-30T03:45:06.396Z,32.14
2019-05-30T03:46:06.250Z,32.64
2019-05-30T03:47:06.284Z,32.24
2019-05-30T03:48:06.737Z,32.34
2019-05-30T03:49:06.720Z,32.34
2019-05-30T03:50:07.303Z,32.34
2019-05-30T03:51:06.161Z,32.34
2019-05-30T03:52:08.040Z,32.34
2019-05-30T03:53:07.424Z,32.54
2019-05-30T03:54:07.683Z,32.64
2019-05-30T03:55:06.982Z,32.64
2019-05-30T03:56:07.339Z,32.64
2019-05-30T03:57:06.916Z,32.64
2019-05-30T03:58:05.782Z,32.34
2019-05-30T03:59:05.948Z,32.44
2019-05-30T04:00:06.095Z,32.44
2019-05-30T04:01:06.692Z,32.34
2019-05-30T04:02:06.401Z,32.24
2019-05-30T04:03:06.762Z,32.74
2019-05-30T04:04:06.526Z,32.34
2019-05-30T04:05:06.646Z,32.34
2019-05-30T04:06:07.374Z,32.34
2019-05-30T04:07:06.940Z,32.24
2019-05-30T04:08:07.091Z,32.54
2019-05-30T04:09:07.080Z,32.44
2019-05-30T04:10:07.277Z,32.44
2019-05-30T04:11:07.385Z,32.44
2019-05-30T04:12:07.597Z,32.44
2019-05-30T04:13:07.145Z,32.44
2019-05-30T04:14:06.908Z,32.54
2019-05-30T04:15:05.500Z,32.44
2019-05-30T04:16:06.941Z,32.54
2019-05-30T04:17:05.477Z,32.74
2019-05-30T04:18:06.964Z,32.34
2019-05-30T04:19:05.697Z,32.64
2019-05-30T04:20:07.019Z,32.64
2019-05-30T04:21:05.434Z,32.44
2019-05-30T04:22:07.219Z,32.44
2019-05-30T04:23:05.413Z,32.44
2019-05-30T04:24:07.108Z,32.44
2019-05-30T04:25:05.397Z,32.44
2019-05-30T04:26:05.420Z,32.34
2019-05-30T04:27:05.388Z,32.54
2019-05-30T04:28:05.358Z,32.24
2019-05-30T04:29:05.681Z,32.44
2019-05-30T04:30:05.335Z,32.54
2019-05-30T04:31:05.344Z,32.54
2019-05-30T04:32:05.349Z,32.14
2019-05-30T04:33:16.980Z,32.14
2019-05-30T04:34:05.352Z,32.84
2019-05-30T04:35:06.194Z,32.93
2019-05-30T04:36:06.177Z,32.74
2019-05-30T04:37:05.285Z,32.04
2019-05-30T04:38:05.338Z,32.74
2019-05-30T04:39:05.254Z,32.84
2019-05-30T04:40:05.233Z,33.04
2019-05-30T04:41:05.236Z,33.14
2019-05-30T04:42:06.176Z,33.04
2019-05-30T04:43:05.206Z,32.64
2019-05-30T04:44:05.213Z,32.64
2019-05-30T04:45:05.177Z,33.23
2019-05-30T04:46:05.170Z,32.54
2019-05-30T04:47:05.188Z,32.84
2019-05-30T04:48:05.185Z,32.34
2019-05-30T04:49:05.182Z,32.34
2019-05-30T04:50:05.122Z,32.44
2019-05-30T04:51:05.118Z,32.74
2019-05-30T04:52:05.116Z,33.23
2019-05-30T04:53:05.682Z,33.23
2019-05-30T04:54:05.191Z,33.34
2019-05-30T04:55:05.082Z,33.34
2019-05-30T04:56:05.097Z,32.74
2019-05-30T04:57:05.061Z,33.34
2019-05-30T04:58:05.679Z,32.64
2019-05-30T04:59:05.212Z,33.14
2019-05-30T05:00:05.045Z,31.84
2019-05-30T05:01:05.006Z,33.53
2019-05-30T05:02:05.686Z,31.84
2019-05-30T05:03:05.672Z,33.23
2019-05-30T05:04:04.982Z,32.84
2019-05-30T05:05:04.974Z,33.14
2019-05-30T05:06:04.949Z,33.23
2019-05-30T05:07:04.938Z,33.14
2019-05-30T05:08:04.933Z,32.64
2019-05-30T05:09:04.929Z,33.34
2019-05-30T05:10:04.910Z,33.23
2019-05-30T05:11:04.894Z,33.23
2019-05-30T05:12:04.888Z,33.23
2019-05-30T05:13:04.874Z,33.34
2019-05-30T05:14:04.883Z,32.95
2019-05-30T05:15:04.847Z,32.93
2019-05-30T05:16:22.056Z,32.93
2019-05-30T05:17:04.873Z,33.53
2019-05-30T05:18:04.843Z,32.84
2019-05-30T05:19:04.855Z,33.23
2019-05-30T05:20:04.801Z,33.15
2019-05-30T05:21:05.693Z,33.14
2019-05-30T05:22:04.774Z,33.23
2019-05-30T05:23:05.674Z,33.04
2019-05-30T05:24:04.783Z,32.75
2019-05-30T05:25:04.742Z,32.56
2019-05-30T05:26:04.741Z,32.84
2019-05-30T05:27:05.675Z,33.14
2019-05-30T05:28:04.726Z,32.93
2019-05-30T05:29:04.713Z,32.84
2019-05-30T05:30:04.692Z,32.64
2019-05-30T05:31:04.682Z,32.95
2019-05-30T05:32:04.667Z,33.14
2019-05-30T05:33:05.191Z,32.84
2019-05-30T05:34:04.690Z,33.23
2019-05-30T05:35:04.639Z,32.86
2019-05-30T05:36:04.623Z,32.84
2019-05-30T05:37:04.608Z,32.93
2019-05-30T05:38:04.608Z,33.04
2019-05-30T05:39:04.710Z,33.05
2019-05-30T05:40:04.582Z,33.04
2019-05-30T05:41:04.568Z,32.93
2019-05-30T05:42:04.568Z,32.54
2019-05-30T05:43:04.558Z,32.54
2019-05-30T05:44:04.687Z,32.56
2019-05-30T05:45:04.525Z,33.15
2019-05-30T05:46:04.518Z,33.14
2019-05-30T05:47:04.511Z,32.54
2019-05-30T05:48:05.199Z,33.23
2019-05-30T05:49:05.183Z,32.45
2019-05-30T05:50:04.690Z,33.15
2019-05-30T05:51:04.612Z,33.23
2019-05-30T05:52:05.181Z,32.84
2019-05-30T05:53:04.443Z,33.35
2019-05-30T05:54:05.181Z,32.54
2019-05-30T05:55:04.728Z,32.74
2019-05-30T05:56:05.190Z,33.14
2019-05-30T05:57:04.397Z,33.34
2019-05-30T05:58:05.187Z,32.54
2019-05-30T05:59:05.180Z,32.74
2019-05-30T06:00:04.392Z,32.95
2019-05-30T06:01:05.179Z,33.14
2019-05-30T06:02:04.351Z,33.23
2019-05-30T06:03:04.361Z,33.14
2019-05-30T06:04:13.315Z,33.23
2019-05-30T06:05:04.340Z,32.84
2019-05-30T06:06:04.303Z,32.84
2019-05-30T06:07:05.188Z,32.93
2019-05-30T06:08:04.278Z,33.44
2019-05-30T06:09:04.265Z,33.23
2019-05-30T06:10:04.275Z,33.23
2019-05-30T06:11:04.248Z,32.64
2019-05-30T06:12:04.235Z,33.14
2019-05-30T06:13:04.245Z,33.53
2019-05-30T06:14:04.217Z,33.15
2019-05-30T06:15:04.245Z,33.53
2019-05-30T06:16:04.190Z,33.73
2019-05-30T06:17:05.192Z,33.25
2019-05-30T06:18:04.168Z,33.53
2019-05-30T06:19:04.683Z,33.53
2019-05-30T06:20:04.197Z,33.63
2019-05-30T06:21:04.134Z,33.95
2019-05-30T06:22:04.127Z,33.23
2019-05-30T06:23:04.688Z,32.84
2019-05-30T06:24:04.786Z,32.93
2019-05-30T06:25:04.276Z,32.93
2019-05-30T06:26:04.096Z,32.93
2019-05-30T06:27:04.697Z,33.23
2019-05-30T06:28:04.079Z,32.84
2019-05-30T06:29:04.689Z,32.84
2019-05-30T06:30:04.078Z,32.95
2019-05-30T06:31:04.027Z,32.93
2019-05-30T06:32:04.688Z,33.23
2019-05-30T06:33:04.014Z,33.44
2019-05-30T06:34:04.003Z,32.93
2019-05-30T06:35:04.716Z,32.93
2019-05-30T06:36:04.530Z,32.75
2019-05-30T06:37:03.987Z,32.93
2019-05-30T06:38:03.956Z,32.84
2019-05-30T06:39:03.966Z,33.15
2019-05-30T06:40:03.931Z,32.93
2019-05-30T06:41:03.954Z,33.53
2019-05-30T06:42:03.911Z,33.04
2019-05-30T06:43:04.682Z,33.23
2019-05-30T06:44:05.740Z,33.25
2019-05-30T06:45:03.882Z,32.93
2019-05-30T06:46:09.206Z,32.84
2019-05-30T06:47:04.679Z,32.93
2019-05-30T06:48:03.848Z,32.93
2019-05-30T06:49:03.849Z,32.95
2019-05-30T06:50:03.825Z,32.64
2019-05-30T06:51:03.822Z,33.73
2019-05-30T06:52:04.701Z,33.15
2019-05-30T06:53:03.797Z,32.75
2019-05-30T06:54:03.815Z,32.84
2019-05-30T06:55:04.683Z,32.65
2019-05-30T06:56:03.759Z,32.93
2019-05-30T06:57:04.686Z,32.93
2019-05-30T06:58:03.737Z,32.95
2019-05-30T06:59:03.799Z,32.95
2019-05-30T07:00:03.716Z,32.93
2019-05-30T07:01:03.710Z,32.84
2019-05-30T07:02:03.711Z,32.74
2019-05-30T07:03:04.744Z,32.86
2019-05-30T07:04:03.891Z,32.84
2019-05-30T07:05:04.360Z,33.44
2019-05-30T07:06:04.204Z,33.53
2019-05-30T07:07:06.167Z,33.44
2019-05-30T07:08:03.634Z,33.63
2019-05-30T07:09:03.627Z,33.44
2019-05-30T07:10:03.624Z,33.35
2019-05-30T07:11:03.612Z,33.34
2019-05-30T07:12:03.611Z,33.23
2019-05-30T07:13:04.182Z,33.53
2019-05-30T07:14:03.587Z,33.63
2019-05-30T07:15:04.182Z,33.53
2019-05-30T07:16:04.187Z,33.53
2019-05-30T07:17:03.549Z,33.73
2019-05-30T07:18:03.545Z,33.45
2019-05-30T07:19:03.509Z,33.63
2019-05-30T07:20:03.693Z,33.44
2019-05-30T07:21:04.207Z,33.93
2019-05-30T07:22:04.187Z,33.65
2019-05-30T07:23:03.465Z,33.53
2019-05-30T07:24:03.459Z,33.53
2019-05-30T07:25:03.713Z,33.53
2019-05-30T07:26:03.776Z,33.53
2019-05-30T07:27:03.426Z,33.65
2019-05-30T07:28:03.408Z,33.93
2019-05-30T07:29:03.411Z,33.73
2019-05-30T07:30:03.718Z,33.75
2019-05-30T07:31:04.189Z,33.23
2019-05-30T07:32:03.387Z,33.44
2019-05-30T07:33:04.183Z,33.44
2019-05-30T07:34:03.357Z,33.35
2019-05-30T07:35:07.205Z,33.44
2019-05-30T07:36:03.318Z,33.14
2019-05-30T07:37:03.321Z,33.14
2019-05-30T07:38:03.308Z,33.34
2019-05-30T07:39:03.283Z,33.35
2019-05-30T07:40:03.293Z,33.34
2019-05-30T07:41:03.260Z,33.73
2019-05-30T07:42:06.589Z,33.44
2019-05-30T07:43:03.244Z,33.45
2019-05-30T07:44:04.201Z,33.55
2019-05-30T07:45:03.714Z,33.93
2019-05-30T07:46:03.208Z,33.73
2019-05-30T07:47:04.216Z,33.63
2019-05-30T07:48:03.192Z,33.95
2019-05-30T07:49:03.698Z,33.63
2019-05-30T07:50:03.203Z,33.63
2019-05-30T07:51:03.163Z,34.33
2019-05-30T07:52:03.162Z,33.73
2019-05-30T07:53:03.128Z,33.83
2019-05-30T07:54:03.695Z,33.75
2019-05-30T07:55:03.116Z,34.23
2019-05-30T07:56:03.096Z,33.83
2019-05-30T07:57:03.699Z,33.83
2019-05-30T07:58:03.078Z,33.83
2019-05-30T07:59:03.084Z,34.03
2019-05-30T08:00:03.070Z,34.03
2019-05-30T08:01:03.066Z,34.05
2019-05-30T08:02:03.042Z,33.73
2019-05-30T08:03:03.026Z,33.83
2019-05-30T08:04:03.684Z,33.93
2019-05-30T08:05:03.025Z,33.85
2019-05-30T08:06:02.999Z,33.83
2019-05-30T08:07:03.696Z,33.85
2019-05-30T08:08:02.975Z,33.53
2019-05-30T08:09:02.964Z,33.73
2019-05-30T08:10:02.969Z,34.13
2019-05-30T08:11:09.328Z,33.93
2019-05-30T08:12:02.958Z,33.73
2019-05-30T08:13:03.716Z,34.03
2019-05-30T08:14:02.908Z,34.03
2019-05-30T08:15:03.706Z,34.03
2019-05-30T08:16:02.897Z,34.03
2019-05-30T08:17:03.703Z,33.63
2019-05-30T08:18:02.886Z,33.85
2019-05-30T08:19:02.880Z,33.93
2019-05-30T08:20:02.840Z,33.73
2019-05-30T08:21:02.864Z,33.93
2019-05-30T08:22:02.825Z,33.73
2019-05-30T08:23:02.826Z,33.93
2019-05-30T08:24:02.793Z,33.73
2019-05-30T08:25:02.796Z,34.03
2019-05-30T08:26:02.823Z,33.85
2019-05-30T08:27:02.777Z,33.83
2019-05-30T08:28:02.756Z,33.73
2019-05-30T08:29:02.741Z,33.73
2019-05-30T08:30:03.690Z,33.93
2019-05-30T08:31:02.761Z,33.83
2019-05-30T08:32:02.706Z,33.73
2019-05-30T08:33:02.720Z,33.73
2019-05-30T08:34:02.693Z,33.93
2019-05-30T08:35:03.205Z,33.73
2019-05-30T08:36:05.553Z,33.75
2019-05-30T08:37:03.195Z,34.92
2019-05-30T08:38:03.204Z,33.75
2019-05-30T08:39:02.651Z,33.63
2019-05-30T08:40:02.623Z,34.92
2019-05-30T08:41:02.627Z,33.53
2019-05-30T08:42:02.613Z,33.93
2019-05-30T08:43:02.596Z,34.53
2019-05-30T08:44:02.583Z,34.43
2019-05-30T08:45:02.585Z,34.45
2019-05-30T08:46:02.581Z,34.45
2019-05-30T08:47:02.566Z,34.53
2019-05-30T08:48:02.550Z,34.63
2019-05-30T08:49:02.530Z,34.43
2019-05-30T08:50:02.518Z,34.63
2019-05-30T08:51:02.537Z,34.83
2019-05-30T08:52:02.495Z,35.13
2019-05-30T08:53:02.512Z,35.05
2019-05-30T08:54:02.490Z,35.03
2019-05-30T08:55:02.465Z,35.03
2019-05-30T08:56:02.461Z,35.22
2019-05-30T08:57:03.191Z,35.03
2019-05-30T08:58:02.429Z,34.83
2019-05-30T08:59:02.426Z,35.22
2019-05-30T09:00:02.433Z,35.13
2019-05-30T09:01:02.705Z,34.63
2019-05-30T09:02:02.393Z,34.63
2019-05-30T09:03:02.420Z,35.22
2019-05-30T09:04:02.403Z,35.33
2019-05-30T09:05:06.704Z,35.33
2019-05-30T09:06:04.372Z,34.92
2019-05-30T09:07:02.342Z,35.13
2019-05-30T09:08:02.362Z,35.13
2019-05-30T09:09:03.217Z,35.33
2019-05-30T09:10:02.311Z,35.03
2019-05-30T09:11:02.328Z,35.03
2019-05-30T09:12:02.285Z,35.22
2019-05-30T09:13:02.320Z,35.03
2019-05-30T09:14:02.267Z,35.22
2019-05-30T09:15:02.275Z,35.22
2019-05-30T09:16:02.755Z,35.03
2019-05-30T09:17:02.232Z,35.13
2019-05-30T09:18:03.199Z,35.42
2019-05-30T09:19:02.220Z,35.22
2019-05-30T09:20:02.204Z,34.83
2019-05-30T09:21:02.217Z,34.92
2019-05-30T09:22:02.701Z,35.22
2019-05-30T09:23:02.168Z,35.03
2019-05-30T09:24:02.205Z,35.13
2019-05-30T09:25:02.718Z,35.13
2019-05-30T09:26:02.131Z,35.22
2019-05-30T09:27:02.222Z,34.92
2019-05-30T09:28:02.122Z,35.13
2019-05-30T09:29:03.811Z,34.92
2019-05-30T09:30:02.085Z,35.03
2019-05-30T09:31:02.696Z,34.92
2019-05-30T09:32:02.205Z,35.03
2019-05-30T09:33:02.779Z,35.33
2019-05-30T09:34:02.060Z,35.22
2019-05-30T09:35:02.050Z,35.22
2019-05-30T09:36:12.662Z,35.22
2019-05-30T09:37:02.033Z,34.23
2019-05-30T09:38:02.691Z,34.53
2019-05-30T09:39:02.030Z,34.23
2019-05-30T09:40:02.712Z,35.13
2019-05-30T09:41:01.967Z,35.22
2019-05-30T09:42:01.993Z,34.83
2019-05-30T09:43:01.947Z,34.53
2019-05-30T09:44:02.709Z,35.03
2019-05-30T09:45:01.933Z,34.43
2019-05-30T09:46:01.920Z,34.23
2019-05-30T09:47:01.917Z,35.33
2019-05-30T09:48:01.942Z,35.42
2019-05-30T09:49:01.894Z,35.33
2019-05-30T09:50:03.960Z,35.52
2019-05-30T09:51:02.720Z,35.52
2019-05-30T09:52:01.864Z,35.42
2019-05-30T09:53:01.841Z,35.22
2019-05-30T09:54:01.880Z,35.22
2019-05-30T09:55:01.820Z,34.92
2019-05-30T09:56:02.710Z,35.22
2019-05-30T09:57:01.814Z,35.22
2019-05-30T09:58:01.792Z,34.92
2019-05-30T09:59:01.776Z,35.03
2019-05-30T10:00:02.709Z,35.42
2019-05-30T10:01:02.694Z,35.03
2019-05-30T10:02:01.766Z,35.13
2019-05-30T10:03:01.735Z,35.13
2019-05-30T10:04:01.724Z,35.22
2019-05-30T10:05:01.726Z,35.13
2019-05-30T10:06:02.697Z,35.33
2019-05-30T10:07:01.718Z,34.92
2019-05-30T10:08:01.675Z,35.72
2019-05-30T10:09:01.677Z,35.72
2019-05-30T10:10:01.692Z,35.42
2019-05-30T10:11:01.647Z,35.92
2019-05-30T10:12:01.651Z,35.82
2019-05-30T10:13:01.639Z,35.52
2019-05-30T10:14:02.193Z,35.63
2019-05-30T10:15:02.201Z,36.02
2019-05-30T10:16:01.593Z,36.02
2019-05-30T10:17:01.597Z,35.92
2019-05-30T10:18:01.573Z,35.92
2019-05-30T10:19:02.219Z,35.82
2019-05-30T10:20:01.637Z,35.92
2019-05-30T10:21:01.536Z,35.52
2019-05-30T10:22:01.679Z,35.42
2019-05-30T10:23:03.552Z,35.52
2019-05-30T10:24:01.508Z,35.42
2019-05-30T10:25:01.525Z,36.02
2019-05-30T10:26:01.478Z,35.63
2019-05-30T10:27:01.517Z,35.22
2019-05-30T10:28:01.460Z,35.63
2019-05-30T10:29:02.205Z,35.42
2019-05-30T10:30:01.465Z,35.52
2019-05-30T10:31:01.457Z,35.52
2019-05-30T10:32:01.418Z,36.02
2019-05-30T10:33:01.430Z,35.82
2019-05-30T10:34:01.396Z,36.02
2019-05-30T10:35:02.245Z,36.02
2019-05-30T10:36:01.376Z,35.72
2019-05-30T10:37:02.216Z,36.02
2019-05-30T10:38:01.367Z,36.02
2019-05-30T10:39:01.392Z,36.12
2019-05-30T10:40:01.366Z,36.12
2019-05-30T10:41:01.330Z,35.82
2019-05-30T10:42:02.197Z,35.72
2019-05-30T10:43:01.315Z,36.12
2019-05-30T10:44:01.296Z,36.02
2019-05-30T10:45:01.312Z,36.02
2019-05-30T10:46:01.294Z,36.02
2019-05-30T10:47:02.199Z,36.22
2019-05-30T10:48:01.258Z,36.22
2019-05-30T10:49:01.248Z,36.02
2019-05-30T10:50:01.234Z,36.22
2019-05-30T10:51:02.219Z,36.12
2019-05-30T10:52:02.202Z,36.32
2019-05-30T10:53:01.236Z,36.42
2019-05-30T10:54:01.189Z,36.22
2019-05-30T10:55:01.200Z,36.32
2019-05-30T10:56:01.182Z,36.32
2019-05-30T10:57:01.163Z,36.12
2019-05-30T10:58:01.153Z,36.32
2019-05-30T10:59:01.140Z,36.22
2019-05-30T11:00:01.134Z,36.22
2019-05-30T11:01:01.148Z,35.92
2019-05-30T11:02:01.099Z,36.32
2019-05-30T11:03:01.102Z,36.12
2019-05-30T11:04:01.079Z,36.22
2019-05-30T11:05:01.108Z,36.42
2019-05-30T11:06:01.074Z,36.02
2019-05-30T11:07:10.401Z,36.22
2019-05-30T11:08:05.654Z,36.42
2019-05-30T11:09:01.046Z,35.92
2019-05-30T11:10:01.719Z,36.22
2019-05-30T11:11:01.719Z,36.22
2019-05-30T11:12:01.010Z,36.02
2019-05-30T11:13:05.885Z,35.92
2019-05-30T11:14:00.965Z,36.12
2019-05-30T11:15:00.953Z,36.02
2019-05-30T11:16:01.746Z,36.02
2019-05-30T11:17:00.976Z,36.12
2019-05-30T11:18:00.955Z,35.92
2019-05-30T11:19:06.857Z,36.10
2019-05-30T11:20:00.935Z,36.12
2019-05-30T11:21:00.914Z,36.00
2019-05-30T11:22:01.712Z,36.22
2019-05-30T11:23:00.928Z,35.91
2019-05-30T11:24:01.217Z,36.10
2019-05-30T11:25:00.865Z,36.32
2019-05-30T11:26:00.871Z,35.92
2019-05-30T11:27:00.865Z,35.92
2019-05-30T11:28:00.817Z,35.72
2019-05-30T11:29:01.224Z,36.02
2019-05-30T11:30:00.796Z,35.63
2019-05-30T11:31:04.500Z,36.02
2019-05-30T11:32:00.782Z,35.72
2019-05-30T11:33:00.775Z,35.72
2019-05-30T11:34:00.778Z,35.52
2019-05-30T11:35:00.743Z,35.63
2019-05-30T11:36:00.731Z,35.72
2019-05-30T11:37:18.070Z,35.63
2019-05-30T11:38:00.717Z,36.42
2019-05-30T11:39:00.714Z,35.63
2019-05-30T11:40:01.206Z,36.02
2019-05-30T11:41:00.679Z,36.02
2019-05-30T11:42:00.677Z,36.42
2019-05-30T11:43:00.669Z,36.02
2019-05-30T11:44:03.946Z,36.12
2019-05-30T11:45:01.222Z,36.12
2019-05-30T11:46:00.626Z,36.22
2019-05-30T11:47:00.668Z,36.32
2019-05-30T11:48:00.632Z,36.00
2019-05-30T11:49:00.712Z,36.12
2019-05-30T11:50:01.226Z,36.10
2019-05-30T11:51:00.569Z,36.72
2019-05-30T11:52:00.574Z,35.91
2019-05-30T11:53:00.556Z,36.00
2019-05-30T11:54:01.178Z,36.32
2019-05-30T11:55:01.255Z,36.70
2019-05-30T11:56:00.568Z,36.30
2019-05-30T11:57:00.512Z,36.62
2019-05-30T11:58:01.218Z,36.22
2019-05-30T11:59:00.495Z,36.50
2019-05-30T12:00:00.604Z,36.22
2019-05-30T12:01:00.689Z,36.21
2019-05-30T12:02:00.600Z,36.62
2019-05-30T12:03:00.713Z,36.52
2019-05-30T12:04:00.799Z,36.30
2019-05-30T12:05:00.844Z,36.40
2019-05-30T12:06:00.839Z,36.32
2019-05-30T12:07:01.275Z,36.22
2019-05-30T12:08:01.208Z,36.50
2019-05-30T12:09:01.149Z,36.22
2019-05-30T12:10:01.460Z,36.40
2019-05-30T12:11:01.412Z,36.40
2019-05-30T12:12:01.452Z,36.80
2019-05-30T12:13:01.618Z,36.52
2019-05-30T12:14:01.498Z,36.40
2019-05-30T12:15:01.502Z,36.30
2019-05-30T12:16:01.515Z,36.82
2019-05-30T12:17:01.407Z,36.90
2019-05-30T12:18:02.207Z,36.30
2019-05-30T12:19:00.274Z,37.00
2019-05-30T12:20:00.279Z,36.30
2019-05-30T12:21:00.253Z,36.32
2019-05-30T12:22:00.242Z,36.90
2019-05-30T12:23:00.235Z,36.92
2019-05-30T12:24:00.393Z,36.82
2019-05-30T12:25:00.604Z,36.60
2019-05-30T12:26:00.729Z,36.90
2019-05-30T12:27:00.817Z,36.52
2019-05-30T12:28:00.719Z,36.60
2019-05-30T12:29:00.205Z,36.90
2019-05-30T12:30:00.424Z,36.72
2019-05-30T12:31:04.619Z,36.92
2019-05-30T12:32:01.742Z,36.62
2019-05-30T12:33:00.470Z,36.50
2019-05-30T12:34:00.517Z,36.92
2019-05-30T12:35:00.519Z,37.02
2019-05-30T12:36:00.649Z,36.92
2019-05-30T12:37:00.542Z,36.72
2019-05-30T12:38:04.294Z,37.00
2019-05-30T12:39:00.450Z,37.02
2019-05-30T12:40:00.659Z,36.72
2019-05-30T12:41:00.900Z,37.02
2019-05-30T12:42:01.251Z,36.52
2019-05-30T12:43:01.537Z,36.70
2019-05-30T12:44:01.340Z,36.80
2019-05-30T12:45:03.578Z,37.02
2019-05-30T12:46:01.174Z,36.60
2019-05-30T12:47:01.231Z,36.70
2019-05-30T12:48:01.224Z,36.72
2019-05-30T12:49:01.580Z,36.70
2019-05-30T12:50:01.320Z,36.72
2019-05-30T12:50:59.939Z,36.80
2019-05-30T12:52:00.609Z,36.72